ORB20T DNMM-FKKD
Flight info
| Callsign | ORB20T |
|---|---|
| Flight time | N/A |
| Altitude | 23000 |
| Route | UMUNA1Q UMUNA UJ333 MOKLA/N0275F250 UJ333 IKROP UL433 MF UA604 KOKAM KOKAM1D |
| Aircraft | PC12/L-SDFGRWY/S |
Departure
| Time | N/A |
|---|---|
| Airport | Murtala Muhammed International Airport (DNMM) |
Arrival
| Time | 2026-04-12 10:00 |
|---|---|
| Airport | Douala International Airport (FKKD) |
| Time | Latitude | Longitude | Altitude | Speed | Heading |
|---|---|---|---|---|---|
| 2026-04-12 09:34 | 4.79409 | 9.50196 | 22964 ft | 245 kts | 165° |
| 2026-04-12 09:34 | 4.77742 | 9.50558 | 22965 ft | 246 kts | 165° |
| 2026-04-12 09:34 | 4.76064 | 9.50922 | 22960 ft | 247 kts | 165° |
| 2026-04-12 09:34 | 4.74386 | 9.51285 | 22956 ft | 248 kts | 165° |
| 2026-04-12 09:35 | 4.72698 | 9.51651 | 22966 ft | 249 kts | 165° |
| 2026-04-12 09:35 | 4.70999 | 9.52020 | 22954 ft | 251 kts | 165° |
| 2026-04-12 09:35 | 4.69313 | 9.52386 | 22958 ft | 252 kts | 165° |
| 2026-04-12 09:35 | 4.67572 | 9.52763 | 22952 ft | 253 kts | 165° |
| 2026-04-12 09:36 | 4.65870 | 9.53132 | 22962 ft | 254 kts | 165° |
| 2026-04-12 09:36 | 4.64136 | 9.53508 | 22951 ft | 255 kts | 165° |
| 2026-04-12 09:36 | 4.62399 | 9.53884 | 22956 ft | 256 kts | 165° |
| 2026-04-12 09:36 | 4.60631 | 9.54268 | 22956 ft | 256 kts | 165° |
| 2026-04-12 09:37 | 4.58888 | 9.54645 | 22955 ft | 257 kts | 165° |
| 2026-04-12 09:37 | 4.57164 | 9.55019 | 22949 ft | 257 kts | 165° |
| 2026-04-12 09:37 | 4.55411 | 9.55399 | 22944 ft | 258 kts | 165° |
| 2026-04-12 09:37 | 4.53654 | 9.55780 | 22944 ft | 258 kts | 165° |
| 2026-04-12 09:38 | 4.51895 | 9.56161 | 22936 ft | 259 kts | 165° |
| 2026-04-12 09:38 | 4.50129 | 9.56543 | 22947 ft | 260 kts | 165° |
| 2026-04-12 09:38 | 4.48378 | 9.56997 | 22935 ft | 259 kts | 159° |
| 2026-04-12 09:38 | 4.46685 | 9.57617 | 22932 ft | 259 kts | 158° |
| 2026-04-12 09:39 | 4.44989 | 9.58227 | 22938 ft | 259 kts | 158° |
| 2026-04-12 09:39 | 4.43287 | 9.58821 | 22934 ft | 259 kts | 158° |
| 2026-04-12 09:39 | 4.41589 | 9.59419 | 22927 ft | 259 kts | 158° |
| 2026-04-12 09:39 | 4.39856 | 9.60034 | 22363 ft | 264 kts | 158° |
| 2026-04-12 09:40 | 4.38135 | 9.60642 | 21793 ft | 260 kts | 158° |
| 2026-04-12 09:40 | 4.36439 | 9.61237 | 21231 ft | 257 kts | 159° |
| 2026-04-12 09:40 | 4.34758 | 9.61797 | 20680 ft | 253 kts | 156° |
| 2026-04-12 09:40 | 4.33132 | 9.62432 | 20145 ft | 249 kts | 156° |
| 2026-04-12 09:41 | 4.31505 | 9.63017 | 19612 ft | 247 kts | 158° |
| 2026-04-12 09:41 | 4.29882 | 9.63565 | 19095 ft | 245 kts | 158° |
| 2026-04-12 09:41 | 4.28284 | 9.64123 | 18587 ft | 242 kts | 157° |
| 2026-04-12 09:41 | 4.26707 | 9.64686 | 18057 ft | 239 kts | 156° |
| 2026-04-12 09:42 | 4.25178 | 9.65227 | 17484 ft | 234 kts | 156° |
| 2026-04-12 09:42 | 4.23641 | 9.65771 | 16900 ft | 229 kts | 156° |
| 2026-04-12 09:42 | 4.22176 | 9.66287 | 16349 ft | 224 kts | 156° |
| 2026-04-12 09:43 | 4.17865 | 9.67898 | 14713 ft | 214 kts | 144° |
| 2026-04-12 09:43 | 4.16910 | 9.68957 | 14169 ft | 203 kts | 111° |
| 2026-04-12 09:43 | 4.16741 | 9.70330 | 13643 ft | 200 kts | 83° |
| 2026-04-12 09:44 | 4.17150 | 9.71654 | 13058 ft | 197 kts | 72° |
| 2026-04-12 09:44 | 4.17430 | 9.72983 | 12491 ft | 193 kts | 82° |
| 2026-04-12 09:44 | 4.17559 | 9.74310 | 11935 ft | 190 kts | 87° |
| 2026-04-12 09:44 | 4.17564 | 9.75627 | 11384 ft | 189 kts | 91° |
| 2026-04-12 09:45 | 4.17455 | 9.76961 | 10852 ft | 195 kts | 95° |
| 2026-04-12 09:45 | 4.17230 | 9.78311 | 10352 ft | 198 kts | 99° |
| 2026-04-12 09:45 | 4.16896 | 9.79637 | 9970 ft | 194 kts | 103° |
| 2026-04-12 09:45 | 4.16475 | 9.80896 | 9657 ft | 187 kts | 107° |
| 2026-04-12 09:46 | 4.15978 | 9.82089 | 9327 ft | 185 kts | 110° |
| 2026-04-12 09:46 | 4.15402 | 9.83233 | 8997 ft | 184 kts | 114° |
| 2026-04-12 09:46 | 4.14749 | 9.84334 | 8674 ft | 183 kts | 118° |
| 2026-04-12 09:46 | 4.14020 | 9.85383 | 8362 ft | 184 kts | 122° |
| 2026-04-12 09:47 | 4.13213 | 9.86378 | 8035 ft | 184 kts | 126° |
| 2026-04-12 09:47 | 4.12341 | 9.87318 | 7721 ft | 184 kts | 130° |
| 2026-04-12 09:47 | 4.11402 | 9.88196 | 7418 ft | 185 kts | 134° |
| 2026-04-12 09:47 | 4.10401 | 9.89012 | 7115 ft | 186 kts | 138° |
| 2026-04-12 09:48 | 4.09337 | 9.89756 | 6817 ft | 187 kts | 142° |
| 2026-04-12 09:48 | 4.08212 | 9.90430 | 6460 ft | 189 kts | 147° |
| 2026-04-12 09:48 | 4.07054 | 9.91015 | 6056 ft | 184 kts | 151° |
| 2026-04-12 09:48 | 4.05886 | 9.91502 | 5742 ft | 177 kts | 154° |
| 2026-04-12 09:49 | 4.04777 | 9.91886 | 5493 ft | 166 kts | 160° |
| 2026-04-12 09:49 | 4.03671 | 9.92188 | 5236 ft | 164 kts | 162° |
| 2026-04-12 09:49 | 4.02580 | 9.92413 | 5011 ft | 156 kts | 166° |
| 2026-04-12 09:49 | 4.01526 | 9.92572 | 4772 ft | 151 kts | 170° |
| 2026-04-12 09:50 | 4.00512 | 9.92661 | 4546 ft | 142 kts | 174° |
| 2026-04-12 09:50 | 3.99534 | 9.92696 | 4280 ft | 139 kts | 176° |
| 2026-04-12 09:50 | 3.98595 | 9.92679 | 4079 ft | 130 kts | 178° |
| 2026-04-12 09:50 | 3.97703 | 9.92623 | 3948 ft | 130 kts | 182° |
| 2026-04-12 09:51 | 3.96798 | 9.92514 | 3800 ft | 133 kts | 186° |
| 2026-04-12 09:51 | 3.95904 | 9.92363 | 3633 ft | 125 kts | 189° |
| 2026-04-12 09:51 | 3.95099 | 9.92187 | 3488 ft | 116 kts | 192° |
| 2026-04-12 09:51 | 3.94328 | 9.91982 | 3339 ft | 112 kts | 195° |
| 2026-04-12 09:52 | 3.93594 | 9.91754 | 3216 ft | 109 kts | 198° |
| 2026-04-12 09:52 | 3.92884 | 9.91499 | 3093 ft | 109 kts | 200° |
| 2026-04-12 09:52 | 3.92180 | 9.91213 | 2992 ft | 108 kts | 202° |
| 2026-04-12 09:52 | 3.91624 | 9.90775 | 2967 ft | 100 kts | 239° |
| 2026-04-12 09:53 | 3.91474 | 9.90114 | 2974 ft | 100 kts | 274° |
| 2026-04-12 09:53 | 3.91736 | 9.89468 | 2986 ft | 102 kts | 299° |
| 2026-04-12 09:53 | 3.92057 | 9.88823 | 2994 ft | 105 kts | 296° |
| 2026-04-12 09:53 | 3.92389 | 9.88164 | 2999 ft | 108 kts | 296° |
| 2026-04-12 09:54 | 3.92728 | 9.87497 | 3000 ft | 107 kts | 297° |
| 2026-04-12 09:54 | 3.93063 | 9.86836 | 3002 ft | 106 kts | 296° |
| 2026-04-12 09:54 | 3.93389 | 9.86190 | 2997 ft | 106 kts | 297° |
| 2026-04-12 09:54 | 3.93722 | 9.85533 | 3000 ft | 105 kts | 297° |
| 2026-04-12 09:55 | 3.94050 | 9.84889 | 2996 ft | 103 kts | 297° |
| 2026-04-12 09:55 | 3.94390 | 9.84218 | 2894 ft | 113 kts | 297° |
| 2026-04-12 09:55 | 3.94755 | 9.83504 | 2777 ft | 116 kts | 297° |
| 2026-04-12 09:55 | 3.95068 | 9.82755 | 2666 ft | 117 kts | 291° |
| 2026-04-12 09:56 | 3.95364 | 9.81985 | 2556 ft | 120 kts | 291° |
| 2026-04-12 09:56 | 3.95464 | 9.81736 | 2514 ft | 120 kts | 294° |
| 2026-04-12 09:56 | 3.95711 | 9.81371 | 2449 ft | 120 kts | 310° |
| 2026-04-12 09:56 | 3.96266 | 9.80745 | 2334 ft | 122 kts | 310° |
| 2026-04-12 09:57 | 3.96685 | 9.79993 | 2055 ft | 130 kts | 290° |
| 2026-04-12 09:57 | 3.97033 | 9.79130 | 1701 ft | 135 kts | 294° |
| 2026-04-12 09:57 | 3.97428 | 9.78285 | 1372 ft | 133 kts | 295° |
| 2026-04-12 09:57 | 3.97825 | 9.77463 | 1084 ft | 127 kts | 296° |
| 2026-04-12 09:58 | 3.98202 | 9.76704 | 910 ft | 118 kts | 297° |
| 2026-04-12 09:58 | 3.98566 | 9.75980 | 693 ft | 113 kts | 297° |
| 2026-04-12 09:58 | 3.98911 | 9.75294 | 551 ft | 108 kts | 297° |
| 2026-04-12 09:58 | 3.99238 | 9.74645 | 409 ft | 101 kts | 298° |
| 2026-04-12 09:59 | 3.99546 | 9.74042 | 277 ft | 94 kts | 297° |
| 2026-04-12 09:59 | 3.99847 | 9.73469 | 139 ft | 92 kts | 298° |
| 2026-04-12 09:59 | 4.00130 | 9.72909 | 34 ft | 84 kts | 297° |
| 2026-04-12 09:59 | 4.00357 | 9.72461 | 27 ft | 53 kts | 297° |
| 2026-04-12 10:00 | 4.00504 | 9.72167 | 29 ft | 47 kts | 296° |
| 2026-04-12 10:00 | 4.00644 | 9.71889 | 31 ft | 39 kts | 297° |
| 2026-04-12 10:00 | 4.00729 | 9.71722 | 31 ft | 25 kts | 297° |
| 2026-04-12 10:00 | 4.00834 | 9.71672 | 32 ft | 20 kts | 21° |
| 2026-04-12 10:01 | 4.00976 | 9.71744 | 30 ft | 25 kts | 28° |
| 2026-04-12 10:01 | 4.01066 | 9.71830 | 30 ft | 11 kts | 83° |
| 2026-04-12 10:01 | 4.01066 | 9.71835 | 30 ft | 0 kts | 85° |
| 2026-04-12 10:02 | 4.01044 | 9.71887 | 30 ft | 17 kts | 115° |
| 2026-04-12 10:02 | 4.00988 | 9.72010 | 30 ft | 18 kts | 105° |
| 2026-04-12 10:02 | 4.00978 | 9.72039 | 30 ft | 1 kts | 115° |
| 2026-04-12 10:02 | 4.00984 | 9.72054 | 30 ft | 5 kts | 351° |
| 2026-04-12 10:03 | 4.01020 | 9.72027 | 30 ft | 4 kts | 22° |
| 2026-04-12 10:03 | 4.01037 | 9.72039 | 30 ft | 3 kts | 24° |
| 2026-04-12 10:03 | 4.01050 | 9.72045 | 30 ft | 1 kts | 26° |
| 2026-04-12 10:03 | 4.01052 | 9.72046 | 30 ft | 0 kts | 26° |